createdAt,value
2019-04-29T00:00:01.680Z,2.80
2019-04-29T00:03:06.511Z,4.90
2019-04-29T00:06:11.005Z,2.60
2019-04-29T00:09:17.713Z,3.37
2019-04-29T00:12:22.284Z,3.40
2019-04-29T00:15:28.356Z,3.00
2019-04-29T00:18:43.235Z,1.83
2019-04-29T00:21:48.328Z,3.77
2019-04-29T00:24:52.768Z,3.60
2019-04-29T00:27:57.193Z,3.80
2019-04-29T00:31:01.629Z,2.20
2019-04-29T00:34:06.072Z,4.43
2019-04-29T00:37:12.132Z,3.87
2019-04-29T00:40:31.064Z,6.17
2019-04-29T00:43:40.166Z,3.80
2019-04-29T00:46:45.098Z,2.83
2019-04-29T00:49:49.836Z,5.53
2019-04-29T00:52:54.260Z,2.50
2019-04-29T00:56:00.335Z,4.37
2019-04-29T00:59:04.838Z,2.83
2019-04-29T01:02:09.634Z,2.70
2019-04-29T01:05:14.514Z,4.93
2019-04-29T01:08:18.991Z,5.43
2019-04-29T01:11:23.665Z,2.37
2019-04-29T01:14:28.101Z,2.57
2019-04-29T01:17:32.818Z,3.93
2019-04-29T01:20:37.250Z,3.00
2019-04-29T01:23:41.972Z,3.57
2019-04-29T01:26:46.503Z,2.83
2019-04-29T01:29:51.232Z,3.53
2019-04-29T01:32:55.657Z,2.63
2019-04-29T01:36:15.120Z,3.53
2019-04-29T01:39:19.889Z,2.83
2019-04-29T01:42:28.910Z,3.30
2019-04-29T01:45:33.614Z,5.47
2019-04-29T01:48:38.045Z,2.10
2019-04-29T01:51:42.476Z,3.23
2019-04-29T01:54:46.910Z,3.03
2019-04-29T01:57:51.332Z,4.20
2019-04-29T02:00:55.765Z,3.13
2019-04-29T02:04:00.191Z,3.20
2019-04-29T02:07:04.635Z,4.73
2019-04-29T02:10:26.834Z,4.57
2019-04-29T02:13:31.557Z,4.83
2019-04-29T02:16:35.994Z,4.03
2019-04-29T02:19:40.414Z,2.77
2019-04-29T02:22:46.493Z,4.63
2019-04-29T02:25:51.599Z,5.63
2019-04-29T02:28:56.359Z,5.10
2019-04-29T02:32:00.765Z,6.73
2019-04-29T02:35:05.911Z,3.40
2019-04-29T02:38:11.988Z,3.50
2019-04-29T02:41:23.817Z,4.60
2019-04-29T02:44:28.213Z,5.47
2019-04-29T02:47:32.720Z,3.13
2019-04-29T02:50:37.147Z,3.77
2019-04-29T02:53:41.575Z,4.27
2019-04-29T02:56:47.652Z,4.03
2019-04-29T02:59:53.729Z,2.60
2019-04-29T03:03:02.521Z,5.80
2019-04-29T03:06:06.975Z,3.13
2019-04-29T03:09:11.667Z,4.67
2019-04-29T03:12:16.175Z,3.63
2019-04-29T03:15:33.537Z,3.33
2019-04-29T03:18:39.885Z,3.83
2019-04-29T03:21:48.563Z,2.50
2019-04-29T03:24:53.241Z,3.27
2019-04-29T03:27:57.851Z,3.43
2019-04-29T03:31:02.606Z,3.00
2019-04-29T03:34:07.019Z,4.97
2019-04-29T03:37:11.748Z,4.27
2019-04-29T03:40:16.173Z,4.07
2019-04-29T03:43:20.607Z,3.97
2019-04-29T03:46:25.329Z,3.37
2019-04-29T03:49:29.755Z,3.77
2019-04-29T03:52:34.200Z,4.83
2019-04-29T03:55:40.487Z,4.97
2019-04-29T03:58:44.779Z,3.37
2019-04-29T04:02:09.163Z,4.30
2019-04-29T04:05:15.230Z,5.20
2019-04-29T04:08:23.942Z,4.37
2019-04-29T04:11:28.377Z,3.57
2019-04-29T04:14:32.808Z,4.53
2019-04-29T04:17:47.419Z,6.50
2019-04-29T04:20:52.183Z,4.53
2019-04-29T04:23:58.307Z,6.70
2019-04-29T04:27:02.811Z,6.13
2019-04-29T04:30:08.345Z,4.27
2019-04-29T04:33:12.771Z,3.97
2019-04-29T04:36:17.473Z,5.10
2019-04-29T04:39:21.905Z,5.87
2019-04-29T04:42:29.572Z,3.17
2019-04-29T04:45:32.485Z,4.50
2019-04-29T04:48:37.225Z,4.07
2019-04-29T04:51:41.642Z,5.60
2019-04-29T04:54:47.720Z,6.47
2019-04-29T04:57:52.151Z,5.93
2019-04-29T05:00:56.583Z,4.10
2019-04-29T05:04:01.280Z,4.30
2019-04-29T05:07:05.708Z,5.03
2019-04-29T05:10:10.643Z,7.07
2019-04-29T05:13:27.366Z,5.07
2019-04-29T05:16:21.219Z,6.50
2019-04-29T05:19:25.656Z,4.33
2019-04-29T05:22:30.386Z,5.77
2019-04-29T05:25:35.544Z,4.67
2019-04-29T05:28:39.982Z,5.43
2019-04-29T05:31:44.689Z,6.90
2019-04-29T05:34:50.763Z,5.67
2019-04-29T05:37:57.024Z,6.63
2019-04-29T05:41:01.733Z,5.97
2019-04-29T05:44:13.791Z,4.23
2019-04-29T05:47:19.857Z,4.57
2019-04-29T05:50:24.332Z,4.37
2019-04-29T05:53:36.230Z,4.30
2019-04-29T05:56:40.651Z,5.13
2019-04-29T05:59:47.790Z,3.90
2019-04-29T06:02:51.855Z,4.00
2019-04-29T06:05:57.115Z,6.53
2019-04-29T06:09:01.548Z,5.87
2019-04-29T06:12:06.045Z,6.60
2019-04-29T06:15:10.606Z,5.23
2019-04-29T06:18:17.739Z,5.07
2019-04-29T06:21:21.189Z,4.07
2019-04-29T06:24:25.622Z,6.80
2019-04-29T06:27:33.286Z,3.40
2019-04-29T06:30:40.467Z,4.43
2019-04-29T06:33:43.266Z,5.67
2019-04-29T06:36:47.983Z,4.80
2019-04-29T06:39:52.421Z,7.20
2019-04-29T06:42:56.846Z,3.47
2019-04-29T06:46:01.562Z,5.37
2019-04-29T06:49:10.402Z,4.13
2019-04-29T06:52:12.147Z,5.90
2019-04-29T06:55:16.584Z,5.80
2019-04-29T06:58:21.016Z,4.27
2019-04-29T07:01:25.446Z,6.43
2019-04-29T07:04:30.646Z,5.93
2019-04-29T07:07:36.324Z,3.40
2019-04-29T07:10:41.045Z,5.77
2019-04-29T07:13:46.748Z,4.67
2019-04-29T07:16:51.215Z,3.27
2019-04-29T07:19:57.576Z,3.53
2019-04-29T07:23:02.457Z,3.87
2019-04-29T07:26:07.045Z,4.23
2019-04-29T07:29:11.890Z,3.17
2019-04-29T07:32:16.620Z,4.90
2019-04-29T07:35:21.353Z,3.67
2019-04-29T07:38:26.080Z,5.17
2019-04-29T07:41:30.524Z,4.63
2019-04-29T07:44:43.846Z,3.90
2019-04-29T07:47:55.788Z,4.73
2019-04-29T07:50:51.455Z,6.23
2019-04-29T07:53:56.190Z,5.03
2019-04-29T07:57:00.635Z,4.20
2019-04-29T08:00:12.715Z,3.90
2019-04-29T08:03:14.756Z,4.10
2019-04-29T08:06:19.339Z,4.30
2019-04-29T08:09:24.141Z,6.83
2019-04-29T08:12:29.303Z,6.70
2019-04-29T08:15:36.855Z,4.60
2019-04-29T08:18:40.171Z,4.80
2019-04-29T08:21:45.573Z,4.00
2019-04-29T08:24:52.160Z,6.10
2019-04-29T08:27:56.793Z,5.80
2019-04-29T08:31:01.236Z,5.17
2019-04-29T08:34:05.984Z,7.07
2019-04-29T08:37:10.426Z,4.27
2019-04-29T08:40:16.742Z,6.37
2019-04-29T08:43:23.066Z,4.40
2019-04-29T08:46:35.070Z,4.27
2019-04-29T08:49:39.503Z,5.97
2019-04-29T08:52:43.947Z,5.30
2019-04-29T08:55:48.519Z,5.93
2019-04-29T08:58:52.947Z,4.27
2019-04-29T09:01:57.671Z,5.20
2019-04-29T09:05:02.108Z,5.10
2019-04-29T09:08:06.581Z,4.00
2019-04-29T09:11:12.909Z,5.30
2019-04-29T09:14:17.417Z,10.43
2019-04-29T09:17:21.858Z,3.87
2019-04-29T09:20:26.287Z,7.77
2019-04-29T09:23:32.631Z,4.90
2019-04-29T09:26:38.998Z,5.27
2019-04-29T09:29:46.421Z,4.60
2019-04-29T09:32:49.897Z,4.83
2019-04-29T09:35:54.624Z,7.00
2019-04-29T09:38:59.357Z,4.10
2019-04-29T09:42:13.014Z,4.90
2019-04-29T09:45:24.853Z,8.07
2019-04-29T09:48:29.297Z,5.97
2019-04-29T09:51:33.742Z,5.80
2019-04-29T09:54:38.172Z,8.93
2019-04-29T09:57:42.895Z,4.90
2019-04-29T10:00:52.355Z,4.87
2019-04-29T10:03:59.533Z,7.30
2019-04-29T10:07:05.643Z,4.27
2019-04-29T10:10:10.315Z,5.17
2019-04-29T10:13:15.047Z,6.23
2019-04-29T10:16:27.062Z,5.47
2019-04-29T10:19:33.142Z,6.20
2019-04-29T10:22:37.587Z,5.30
2019-04-29T10:25:42.095Z,4.50
2019-04-29T10:28:50.575Z,5.23
2019-04-29T10:31:55.009Z,4.47
2019-04-29T10:35:03.651Z,6.13
2019-04-29T10:38:06.753Z,5.57
2019-04-29T10:41:24.555Z,8.97
2019-04-29T10:44:30.927Z,6.73
2019-04-29T10:47:35.452Z,3.93
2019-04-29T10:50:41.819Z,5.97
2019-04-29T10:53:46.733Z,3.30
2019-04-29T10:56:52.588Z,6.67
2019-04-29T11:00:01.001Z,5.63
2019-04-29T11:03:04.975Z,6.67
2019-04-29T11:06:09.851Z,5.37
2019-04-29T11:09:16.106Z,5.50
2019-04-29T11:12:21.084Z,4.53
2019-04-29T11:15:29.557Z,5.77
2019-04-29T11:18:33.742Z,4.70
2019-04-29T11:21:38.974Z,5.30
2019-04-29T11:24:45.714Z,5.73
2019-04-29T11:27:56.254Z,7.10
2019-04-29T11:31:00.950Z,6.50
2019-04-29T11:34:07.706Z,4.20
2019-04-29T11:37:17.913Z,3.83
2019-04-29T11:40:26.053Z,6.80
2019-04-29T11:43:28.284Z,3.87
2019-04-29T11:46:32.721Z,4.77
2019-04-29T11:49:38.807Z,6.00
2019-04-29T11:52:43.239Z,6.13
2019-04-29T11:55:47.794Z,4.10
2019-04-29T11:58:53.888Z,6.97
2019-04-29T12:02:05.910Z,5.83
2019-04-29T12:05:12.860Z,4.03
2019-04-29T12:08:18.439Z,4.17
2019-04-29T12:11:28.660Z,4.83
2019-04-29T12:14:48.475Z,6.63
2019-04-29T12:18:00.520Z,5.73
2019-04-29T12:21:09.219Z,7.13
2019-04-29T12:24:14.090Z,4.47
2019-04-29T12:27:20.125Z,3.90
2019-04-29T12:30:29.934Z,8.87
2019-04-29T12:33:36.939Z,4.50
2019-04-29T12:36:54.994Z,4.57
2019-04-29T12:39:50.552Z,6.60
2019-04-29T12:43:16.228Z,5.63
2019-04-29T12:46:23.658Z,9.23
2019-04-29T12:49:28.102Z,4.67
2019-04-29T12:52:32.533Z,6.60
2019-04-29T12:55:45.187Z,6.80
2019-04-29T12:58:50.494Z,7.53
2019-04-29T13:01:58.311Z,6.77
2019-04-29T13:05:01.631Z,8.07
2019-04-29T13:08:08.053Z,5.37
2019-04-29T13:11:14.703Z,4.90
2019-04-29T13:14:20.568Z,6.83
2019-04-29T13:17:42.663Z,6.77
2019-04-29T13:20:50.642Z,6.97
2019-04-29T13:24:12.190Z,4.63
2019-04-29T13:26:59.770Z,6.20
2019-04-29T13:30:14.878Z,5.13
2019-04-29T13:33:22.209Z,4.83
2019-04-29T13:36:26.042Z,4.67
2019-04-29T13:39:39.035Z,3.57
2019-04-29T13:42:33.518Z,9.50
2019-04-29T13:45:39.596Z,4.87
2019-04-29T13:48:55.867Z,5.63
2019-04-29T13:51:59.209Z,8.63
2019-04-29T13:55:17.028Z,6.53
2019-04-29T13:58:09.961Z,4.10
2019-04-29T14:01:23.783Z,4.73
2019-04-29T14:04:27.024Z,7.53
2019-04-29T14:07:31.459Z,3.97
2019-04-29T14:10:35.893Z,5.57
2019-04-29T14:13:43.653Z,6.63
2019-04-29T14:16:47.626Z,7.17
2019-04-29T14:19:56.794Z,5.20
2019-04-29T14:22:59.535Z,5.20
2019-04-29T14:26:04.266Z,6.43
2019-04-29T14:29:08.717Z,10.13
2019-04-29T14:32:13.158Z,7.70
2019-04-29T14:35:19.588Z,6.73
2019-04-29T14:38:24.508Z,8.27
2019-04-29T14:41:30.586Z,6.13
2019-04-29T14:44:42.963Z,9.57
2019-04-29T14:48:05.464Z,6.17
2019-04-29T14:51:11.508Z,7.80
2019-04-29T14:54:15.951Z,6.27
2019-04-29T14:57:20.393Z,7.73
2019-04-29T15:00:26.967Z,7.80
2019-04-29T15:03:49.138Z,7.30
2019-04-29T15:06:53.635Z,8.70
2019-04-29T15:09:58.749Z,6.17
2019-04-29T15:13:20.243Z,6.00
2019-04-29T15:16:29.137Z,8.40
2019-04-29T15:19:54.980Z,7.20
2019-04-29T15:22:56.466Z,3.93
2019-04-29T15:26:01.210Z,7.50
2019-04-29T15:33:30.522Z,3.80
2019-04-29T15:36:36.004Z,4.00
2019-04-29T15:39:45.338Z,4.30
2019-04-29T15:42:51.137Z,4.20
2019-04-29T15:45:52.907Z,5.23
2019-04-29T15:48:57.669Z,3.23
2019-04-29T15:52:02.103Z,5.23
2019-04-29T15:55:06.985Z,25.50
2019-04-29T15:58:13.024Z,8.53
2019-04-29T16:01:26.371Z,3.77
2019-04-29T16:04:33.630Z,5.93
2019-04-29T16:07:57.258Z,6.60
2019-04-29T16:11:07.213Z,3.67
2019-04-29T16:14:13.619Z,6.93
2019-04-29T16:17:20.631Z,6.60
2019-04-29T16:20:24.815Z,7.53
2019-04-29T16:23:32.922Z,7.33
2019-04-29T16:26:35.741Z,7.63
2019-04-29T16:29:40.170Z,4.87
2019-04-29T16:32:44.714Z,6.27
2019-04-29T16:35:49.151Z,6.20
2019-04-29T16:38:54.248Z,6.27
2019-04-29T16:42:01.274Z,9.07
2019-04-29T16:45:11.981Z,5.10
2019-04-29T16:48:17.136Z,8.97
2019-04-29T16:51:22.739Z,7.33
2019-04-29T16:54:28.489Z,7.37
2019-04-29T16:57:33.181Z,6.70
2019-04-29T17:00:46.629Z,5.07
2019-04-29T17:03:48.589Z,6.93
2019-04-29T17:07:11.712Z,4.80
2019-04-29T17:10:05.896Z,5.80
2019-04-29T17:13:16.640Z,6.30
2019-04-29T17:16:21.110Z,5.37
2019-04-29T17:19:25.585Z,8.10
2019-04-29T17:22:35.707Z,7.63
2019-04-29T17:25:37.538Z,7.40
2019-04-29T17:29:11.577Z,7.57
2019-04-29T17:32:27.504Z,5.63
2019-04-29T17:35:34.484Z,7.33
2019-04-29T17:38:38.911Z,6.97
2019-04-29T17:41:45.468Z,5.93
2019-04-29T17:44:50.368Z,6.77
2019-04-29T17:47:59.264Z,6.40
2019-04-29T17:51:07.866Z,6.77
2019-04-29T17:54:15.805Z,9.27
2019-04-29T17:57:28.729Z,7.90
2019-04-29T18:00:43.854Z,6.10
2019-04-29T18:03:59.407Z,5.87
2019-04-29T18:07:15.179Z,4.20
2019-04-29T18:10:24.187Z,5.67
2019-04-29T18:13:26.391Z,5.43
2019-04-29T18:16:32.858Z,4.53
2019-04-29T18:19:41.735Z,5.97
2019-04-29T18:22:56.510Z,3.97
2019-04-29T18:26:02.647Z,4.67
2019-04-29T18:29:08.068Z,4.37
2019-04-29T18:32:12.743Z,5.10
2019-04-29T18:35:17.217Z,6.87
2019-04-29T18:38:21.956Z,7.80
2019-04-29T18:41:28.654Z,7.40
2019-04-29T18:44:33.163Z,6.20
2019-04-29T18:47:38.852Z,6.37
2019-04-29T18:50:43.415Z,5.63
2019-04-29T18:53:48.170Z,6.00
2019-04-29T18:56:52.619Z,5.93
2019-04-29T18:59:57.329Z,7.30
2019-04-29T19:03:01.781Z,7.57
2019-04-29T19:06:10.309Z,7.07
2019-04-29T19:09:20.058Z,6.43
2019-04-29T19:12:20.041Z,7.50
2019-04-29T19:15:25.680Z,8.83
2019-04-29T19:18:30.526Z,10.27
2019-04-29T19:21:34.983Z,11.43
2019-04-29T19:24:39.522Z,7.90
2019-04-29T19:27:45.456Z,6.03
2019-04-29T19:30:50.028Z,7.53
2019-04-29T19:33:55.075Z,7.13
2019-04-29T19:37:00.639Z,6.87
2019-04-29T19:40:08.166Z,6.83
2019-04-29T19:43:17.402Z,9.87
2019-04-29T19:46:24.182Z,9.53
2019-04-29T19:49:25.802Z,8.57
2019-04-29T19:52:31.898Z,7.27
2019-04-29T19:55:41.830Z,7.07
2019-04-29T19:58:43.056Z,8.67
2019-04-29T20:01:50.993Z,6.93
2019-04-29T20:04:58.978Z,10.97
2019-04-29T20:08:02.521Z,10.80
2019-04-29T20:11:14.552Z,7.40
2019-04-29T20:14:20.821Z,7.37
2019-04-29T20:17:31.246Z,9.87
2019-04-29T20:20:38.911Z,8.93
2019-04-29T20:23:45.861Z,8.27
2019-04-29T20:26:49.830Z,7.53
2019-04-29T20:29:55.797Z,6.23
2019-04-29T20:33:01.071Z,8.10
2019-04-29T20:36:06.937Z,8.00
2019-04-29T20:39:17.040Z,8.20
2019-04-29T20:42:17.772Z,9.17
2019-04-29T20:45:25.399Z,8.97
2019-04-29T20:48:31.359Z,9.90
2019-04-29T20:51:48.783Z,9.67
2019-04-29T20:54:42.098Z,9.47
2019-04-29T20:57:47.998Z,8.30
2019-04-29T21:00:58.314Z,9.50
2019-04-29T21:03:59.597Z,11.03
2019-04-29T21:07:07.033Z,14.37
2019-04-29T21:10:12.505Z,11.57
2019-04-29T21:13:34.892Z,12.63
2019-04-29T21:16:41.259Z,15.33
2019-04-29T21:19:46.000Z,11.83
2019-04-29T21:22:52.517Z,13.03
2019-04-29T21:26:00.398Z,17.67
2019-04-29T21:29:03.357Z,14.20
2019-04-29T21:32:07.792Z,15.77
2019-04-29T21:35:18.302Z,13.80
2019-04-29T21:38:38.741Z,13.87
2019-04-29T21:42:02.824Z,15.70
2019-04-29T21:45:10.740Z,14.10
2019-04-29T21:48:15.474Z,15.23
2019-04-29T21:51:20.188Z,14.33
2019-04-29T21:54:24.637Z,14.13
2019-04-29T21:57:29.345Z,14.83
2019-04-29T22:00:35.229Z,15.87
2019-04-29T22:03:40.363Z,15.27
2019-04-29T22:06:45.880Z,13.73
2019-04-29T22:09:50.956Z,15.73
2019-04-29T22:13:00.870Z,15.23
2019-04-29T22:16:01.627Z,15.13
2019-04-29T22:19:06.069Z,15.97
2019-04-29T22:22:10.778Z,17.80
2019-04-29T22:25:15.828Z,17.63
2019-04-29T22:28:20.746Z,16.30
2019-04-29T22:31:26.910Z,16.23
2019-04-29T22:34:31.576Z,17.67
2019-04-29T22:37:38.158Z,17.73
2019-04-29T22:40:43.082Z,16.27
2019-04-29T22:43:51.162Z,16.93
2019-04-29T22:46:55.622Z,17.60
2019-04-29T22:50:03.183Z,17.57
2019-04-29T22:53:08.882Z,18.93
2019-04-29T22:56:14.246Z,18.43
2019-04-29T22:59:20.246Z,19.00
2019-04-29T23:02:28.405Z,19.73
2019-04-29T23:05:31.348Z,20.10
2019-04-29T23:08:38.051Z,19.33
2019-04-29T23:11:42.247Z,22.70
2019-04-29T23:14:47.073Z,21.23
2019-04-29T23:17:51.808Z,20.27
2019-04-29T23:21:16.290Z,20.17
2019-04-29T23:24:38.020Z,21.37
2019-04-29T23:27:42.759Z,22.37
2019-04-29T23:30:47.811Z,22.93
2019-04-29T23:33:54.893Z,22.93
2019-04-29T23:36:59.606Z,23.20
2019-04-29T23:40:05.903Z,22.70
2019-04-29T23:43:10.611Z,21.40
2019-04-29T23:46:16.132Z,24.33
2019-04-29T23:49:20.776Z,23.03
2019-04-29T23:52:26.945Z,24.53
2019-04-29T23:55:31.786Z,24.80
2019-04-29T23:58:46.768Z,24.10
